Etowah, Arkansas
Current Conditions -  °F | °C
As of 2:53 AM on Thursday 27 Nov 2014 (Local Time) from KJBR Reporting Station
Overcast Overcast  
Wind Chill: 33°   Ceiling: 3500
Heat Index: 39°   Visibility: 10mi
Dew Point: 28°   Wind: 9mph
Humidity: 65%   Direction: 310°NW
Pressure: 30.34"   Gusts: 25mph
Location:  35.73°N, 90.23°W
Report Text: KJBR 270853Z AUTO 31008G22KT 10SM OVC035 04/M02 A3034 RMK AO2 SLP273 T00391022 53042
Loading
Personal Weather Stations






























Interactive Weather Map New forecast layout! Learn more

10-Day Weather Forecast

Advertisements
Track Severe Weather on mobile